Airfield :
LOGIN :

Register | Disclaimer

   EN    FR    IT 

 










Legend :    VFR   Marginal VFR   IFR   Intensive IFR   Very Intensive IFR
Visi :
Ceiling :
>= 8 km
>= 3000ft
5 to 8 km
1000 to 3000 ft
1500m to 5 km
500 to 1000 ft
800 to 1500m
200 to 500 ft
< 800m
< 200 ft
Symbols :   Thunderstorms  Fog  Heavy snow  Heavy precipitations  Wind > 20 kt
SIGMETs :     Misc.  Thunderstorms  Icing  Turbulence  Mountain Waves  Volcanic Ashes






- Airport Elevation : 37 ft
- IATA code : HLY


EGOV - RAF Valley

CURRENT METAR :
  • 231250Z 36011KT 9999 FEW024 SCT200 12/04 Q1025 NOSIG RMK BLU BLU

EXPIRED METARs :
  • 231220Z 36012KT 9999 FEW024 BKN036 11/04 Q1026 NOSIG RMK BLU BLU
  • 231150Z 01012KT 9999 FEW024 BKN036 11/04 Q1026 NOSIG RMK BLU BLU
  • 231120Z 35013KT 9999 FEW021 SCT032 BKN042 11/05 Q1026 NOSIG RMK BLU WHT
  • 231050Z 35012KT 9999 FEW022 BKN032 11/05 Q1026 NOSIG RMK BLU BLU
  • 231020Z 01009KT 9999 FEW022 SCT024 BKN035 11/05 Q1026 TEMPO FEW024 RMK WHT TEMPO BLU
  • 230950Z 03009KT 9999 FEW022 SCT045 11/05 Q1026 NOSIG RMK BLU BLU
  • 230920Z 05009KT 9999 FEW018 BKN040 11/05 Q1026 NOSIG RMK BLU BLU
  • 230850Z 05009KT 9999 FEW018 BKN031 10/06 Q1026 TEMPO SCT018 RMK BLU TEMPO WHT
  • 230820Z 06009KT 9999 FEW017 BKN028 10/05 Q1026 TEMPO SCT018 RMK BLU TEMPO WHT

TAF TAF EGOV
Valid from the 23 at 12:00 until the 23 at 19:00 UTC


231022Z 2312/2319 02012KT 9999 FEW025



MET'MAP, your aeronautical weather chart ! - Copyright ORBIFLY December 2007 - Disclaimer

ORBIFLY MET'MAP TEAM :

Programming & Development : Alexandra Zaïnal
Original concept : Baudouin d'Aumeries
Technical & hardware support : Manuel Goepfert
Assistance : Marc-Olivier Méhu




SOURCES & CREDITS :

   NOAA